Time;durP1;ratioP1;P1;durP2;ratioP2;P2;SDS_P1;SDS_P2;PMS_P1;PMS_P2;Temp;Humidity;BMP_temperature;BMP_pressure;BME280_temperature;BME280_humidity;BME280_pressure;Samples;Min_cycle;Max_cycle;Signal;HPM_P1;HPM_P2
2022/10/01 00:05:17;;;;;;;39.90;25.67;;;8.00;99.90;;;;;;10462225;28;20230;-84
2022/10/01 00:10:43;;;;;;;39.57;25.27;;;7.90;99.90;;;;;;10429213;28;20372;-85
2022/10/01 00:16:08;;;;;;;37.40;24.07;;;7.80;1.00;;;;;;10445554;28;20280;-84
2022/10/01 00:21:31;;;;;;;31.77;21.07;;;7.80;1.00;;;;;;10449285;28;20493;-84
2022/10/01 00:26:53;;;;;;;32.70;22.07;;;7.80;1.00;;;;;;10483639;28;20193;-84
2022/10/01 00:32:14;;;;;;;31.80;20.03;;;7.80;1.00;;;;;;10483575;28;20192;-84
2022/10/01 00:37:36;;;;;;;31.57;20.63;;;7.90;1.00;;;;;;10483625;28;20199;-85
2022/10/01 00:42:57;;;;;;;27.70;19.27;;;7.90;1.00;;;;;;10468560;28;20208;-84
2022/10/01 00:48:21;;;;;;;31.37;20.87;;;7.80;1.00;;;;;;10467681;28;20256;-84
2022/10/01 00:53:44;;;;;;;29.27;20.17;;;7.80;99.90;;;;;;10468611;28;20226;-85
2022/10/01 00:59:06;;;;;;;27.50;19.03;;;7.70;99.90;;;;;;10482580;28;20239;-84
2022/10/01 01:04:28;;;;;;;34.17;21.07;;;7.70;99.90;;;;;;10467888;28;20276;-84
2022/10/01 01:09:52;;;;;;;29.50;19.30;;;7.60;99.90;;;;;;10429551;28;20194;-84
2022/10/01 01:15:50;;;;;;;29.97;19.37;;;7.60;1.00;;;;;;10462562;28;20225;-84
2022/10/01 01:21:20;;;;;;;42.87;24.47;;;7.60;1.00;;;;;;10467219;28;20196;-84
2022/10/01 01:27:01;;;;;;;58.63;32.23;;;7.50;1.00;;;;;;10481097;28;20199;-84
2022/10/01 01:32:29;;;;;;;58.77;31.37;;;7.50;99.90;;;;;;10466924;28;20193;-84
2022/10/01 01:37:56;;;;;;;47.73;29.23;;;7.30;99.90;;;;;;10452950;28;20279;-84
2022/10/01 01:43:23;;;;;;;47.20;27.67;;;7.40;99.90;;;;;;10466515;28;20251;-84
2022/10/01 01:48:48;;;;;;;45.63;28.03;;;7.40;1.00;;;;;;10480178;28;20233;-85
2022/10/01 01:54:09;;;;;;;39.30;25.73;;;7.40;1.00;;;;;;10479655;28;20227;-85
2022/10/01 01:59:32;;;;;;;39.33;25.00;;;7.30;1.00;;;;;;10452779;28;20197;-85
2022/10/01 02:05:02;;;;;;;36.80;24.43;;;7.30;99.90;;;;;;10476520;28;20286;-84
2022/10/01 02:10:57;;;;;;;37.77;24.53;;;7.30;99.90;;;;;;10424093;28;20201;-84
2022/10/01 02:16:36;;;;;;;39.47;24.50;;;7.10;99.90;;;;;;10438305;28;20226;-84
2022/10/01 02:21:59;;;;;;;32.07;22.70;;;;;;;;;;10444856;28;20188;-84
2022/10/01 02:27:32;;;;;;;30.40;21.13;;;7.20;1.00;;;;;;10479955;28;20192;-83
2022/10/01 02:32:57;;;;;;;30.67;21.77;;;7.20;1.00;;;;;;10478391;28;20220;-84
2022/10/01 02:38:22;;;;;;;30.03;20.43;;;7.20;1.00;;;;;;10478622;28;20211;-83
2022/10/01 02:43:55;;;;;;;29.30;21.50;;;7.10;1.00;;;;;;10450340;28;20194;-84
2022/10/01 02:49:16;;;;;;;30.60;19.97;;;6.90;99.90;;;;;;10450373;28;20232;-84
2022/10/01 02:54:59;;;;;;;29.67;19.93;;;6.90;1.00;;;;;;10463920;28;20295;-84
2022/10/01 03:00:21;;;;;;;26.27;19.17;;;6.80;99.90;;;;;;10463899;28;20549;-83
2022/10/01 03:05:43;;;;;;;26.80;19.40;;;6.90;1.00;;;;;;10477584;28;20197;-84
2022/10/01 03:11:07;;;;;;;29.70;20.23;;;6.80;1.00;;;;;;10477168;28;20208;-84
2022/10/01 03:16:29;;;;;;;26.57;18.90;;;6.80;1.00;;;;;;10464501;28;20236;-85
2022/10/01 03:21:50;;;;;;;30.83;19.53;;;6.80;1.00;;;;;;10484572;28;20176;-84
2022/10/01 03:27:11;;;;;;;26.10;18.83;;;6.80;1.00;;;;;;10466711;28;20541;-85
2022/10/01 03:32:32;;;;;;;30.10;19.53;;;6.90;1.00;;;;;;10477870;28;20193;-84
2022/10/01 03:37:54;;;;;;;30.47;19.60;;;6.80;1.00;;;;;;10449481;28;20197;-83
2022/10/01 03:43:16;;;;;;;25.27;18.43;;;6.80;1.00;;;;;;10477368;28;20208;-85
2022/10/01 03:48:37;;;;;;;28.13;20.30;;;6.80;1.00;;;;;;10435417;28;20229;-84
2022/10/01 03:53:58;;;;;;;23.27;17.40;;;6.80;1.00;;;;;;10435932;28;20225;-84
2022/10/01 03:59:20;;;;;;;25.73;18.73;;;6.80;1.00;;;;;;10407967;28;20419;-85
2022/10/01 04:04:42;;;;;;;25.00;18.77;;;6.80;1.00;;;;;;10471751;28;20363;-84
2022/10/01 04:10:04;;;;;;;29.93;19.57;;;6.80;1.00;;;;;;10435490;28;20225;-85
2022/10/01 04:15:25;;;;;;;26.87;19.20;;;6.80;1.00;;;;;;10421409;28;20418;-84
2022/10/01 04:20:47;;;;;;;23.27;18.10;;;6.80;1.00;;;;;;10447816;28;20214;-85
2022/10/01 04:26:08;;;;;;;27.93;19.27;;;6.80;1.00;;;;;;10468809;28;20196;-84
2022/10/01 04:31:33;;;;;;;27.10;19.17;;;6.80;1.00;;;;;;10470000;28;20184;-84
2022/10/01 04:36:55;;;;;;;28.07;19.17;;;6.90;1.00;;;;;;10428013;28;20605;-85
2022/10/01 04:42:16;;;;;;;28.70;20.23;;;7.10;1.00;;;;;;10442275;28;20268;-85
2022/10/01 04:47:46;;;;;;;28.73;19.20;;;7.20;1.00;;;;;;10427786;28;20228;-85
2022/10/01 04:53:08;;;;;;;25.97;19.47;;;7.20;1.00;;;;;;10454041;28;20232;-85
2022/10/01 04:58:30;;;;;;;28.07;20.87;;;7.10;1.00;;;;;;10468476;28;20518;-84
2022/10/01 05:03:51;;;;;;;31.03;20.37;;;7.20;1.00;;;;;;10454209;28;20199;-84
2022/10/01 05:09:12;;;;;;;29.07;20.73;;;7.30;1.00;;;;;;10467929;28;20201;-84
2022/10/01 05:14:34;;;;;;;32.10;20.90;;;7.30;1.00;;;;;;10453898;28;20223;-84
2022/10/01 05:19:56;;;;;;;31.20;21.37;;;7.30;1.00;;;;;;10454372;28;20200;-83
2022/10/01 05:25:18;;;;;;;29.00;21.50;;;7.30;1.00;;;;;;10453924;28;20355;-84
2022/10/01 05:30:39;;;;;;;30.67;20.87;;;7.40;1.00;;;;;;10431898;28;20202;-85
2022/10/01 05:36:03;;;;;;;33.37;21.93;;;7.40;1.00;;;;;;10466749;28;20473;-84
2022/10/01 05:41:25;;;;;;;32.93;21.00;;;7.50;1.00;;;;;;10454054;28;20272;-84
2022/10/01 05:46:46;;;;;;;33.80;22.20;;;7.60;1.00;;;;;;10452980;28;20240;-84
2022/10/01 05:52:13;;;;;;;37.47;25.63;;;7.70;1.00;;;;;;10467025;28;20205;-83
2022/10/01 05:57:34;;;;;;;29.83;22.90;;;7.80;1.00;;;;;;10425090;28;20254;-84
2022/10/01 06:02:57;;;;;;;48.27;29.33;;;7.80;1.00;;;;;;10430206;28;20193;-84
2022/10/01 06:08:19;;;;;;;55.13;36.73;;;8.00;1.00;;;;;;10466431;28;20445;-84
2022/10/01 06:13:45;;;;;;;56.23;37.87;;;8.10;1.00;;;;;;10465437;28;20224;-84
2022/10/01 06:19:06;;;;;;;45.60;32.20;;;8.10;1.00;;;;;;10465423;28;20189;-84
2022/10/01 06:24:29;;;;;;;38.00;26.73;;;8.30;5.50;;;;;;10464814;28;20207;-84
2022/10/01 06:29:50;;;;;;;35.57;25.17;;;8.50;1.00;;;;;;10478767;28;20220;-84
2022/10/01 06:35:11;;;;;;;35.97;25.73;;;8.80;1.00;;;;;;10464349;28;20233;-84
2022/10/01 06:40:33;;;;;;;30.33;21.60;;;9.30;1.00;;;;;;10464710;28;20220;-84
2022/10/01 06:45:54;;;;;;;26.77;17.70;;;10.90;1.00;;;;;;10476959;28;20525;-85
2022/10/01 06:52:47;;;;;;;26.20;19.80;;;12.40;1.00;;;;;;10464116;28;20382;-85
2022/10/01 06:56:57;;;;;;;30.52;21.27;;;13.30;99.90;;;;;;10478182;28;20229;-86
2022/10/01 07:02:26;;;;;;;24.60;16.95;;;14.00;1.00;;;;;;10464139;28;20419;-85
2022/10/01 07:07:47;;;;;;;24.33;17.60;;;14.10;1.00;;;;;;10452584;28;20454;-85
2022/10/01 07:13:11;;;;;;;19.58;14.88;;;14.40;1.00;;;;;;10422655;28;20258;-85
2022/10/01 07:18:34;;;;;;;19.92;13.68;;;15.10;83.40;;;;;;10452526;28;20246;-85
2022/10/01 07:23:55;;;;;;;28.30;17.15;;;15.70;1.00;;;;;;10463293;28;20219;-85
2022/10/01 07:29:17;;;;;;;18.73;13.57;;;15.00;1.00;;;;;;10449171;28;20199;-85
2022/10/01 07:34:41;;;;;;;27.98;17.90;;;14.80;1.00;;;;;;10462385;28;20407;-85
2022/10/01 07:40:03;;;;;;;15.50;12.90;;;15.20;1.00;;;;;;10463304;28;20207;-85
2022/10/01 07:45:26;;;;;;;15.65;11.90;;;15.60;99.90;;;;;;10463215;28;20273;-84
2022/10/01 07:50:48;;;;;;;18.60;13.18;;;16.80;1.00;;;;;;10465990;28;20505;-85
2022/10/01 07:56:10;;;;;;;18.38;12.35;;;17.70;1.00;;;;;;10466528;28;20226;-87
2022/10/01 08:01:32;;;;;;;15.43;11.75;;;18.50;54.10;;;;;;10472085;28;20367;-86
2022/10/01 08:06:53;;;;;;;16.00;10.68;;;19.60;1.00;;;;;;10474028;28;20195;-87
2022/10/01 08:12:16;;;;;;;16.80;12.45;;;19.70;99.90;;;;;;10484538;28;20261;-86
2022/10/01 08:17:38;;;;;;;10.40;8.45;;;20.20;1.00;;;;;;10445800;28;20266;-86
2022/10/01 08:23:04;;;;;;;12.95;9.50;;;20.90;1.00;;;;;;10442649;28;20495;-86
2022/10/01 08:28:27;;;;;;;12.48;9.45;;;21.20;1.00;;;;;;10479838;28;20206;-86
2022/10/01 08:33:49;;;;;;;14.38;9.23;;;21.30;1.00;;;;;;10469403;28;20290;-86
2022/10/01 08:39:13;;;;;;;13.38;9.93;;;20.50;99.90;;;;;;10469112;28;20207;-86
2022/10/01 08:44:44;;;;;;;13.35;10.13;;;19.80;1.00;;;;;;10468921;28;20302;-86
2022/10/01 08:50:17;;;;;;;12.85;8.85;;;20.10;1.00;;;;;;10428937;28;20198;-85
2022/10/01 08:55:40;;;;;;;15.20;9.00;;;20.50;1.00;;;;;;10460640;28;20299;-86
2022/10/01 09:01:01;;;;;;;8.48;6.80;;;21.40;1.00;;;;;;10444949;28;20426;-86
2022/10/01 09:06:27;;;;;;;9.77;6.82;;;22.10;1.00;;;;;;10452594;28;20235;-86
2022/10/01 09:12:02;;;;;;;19.20;12.38;;;22.50;1.00;;;;;;10458896;28;20196;-86
2022/10/01 09:17:39;;;;;;;14.07;9.52;;;22.40;99.90;;;;;;10446617;28;20540;-86
2022/10/01 09:23:07;;;;;;;15.48;8.25;;;23.30;99.90;;;;;;10452023;28;20184;-86
2022/10/01 09:28:34;;;;;;;10.48;8.00;;;23.60;99.90;;;;;;10462563;28;20196;-85
2022/10/01 09:34:11;;;;;;;16.63;11.50;;;23.30;1.00;;;;;;10487032;28;20220;-85
2022/10/01 09:39:43;;;;;;;17.17;7.55;;;24.10;1.00;;;;;;10459144;28;20249;-85
2022/10/01 09:45:06;;;;;;;16.55;8.57;;;24.10;99.90;;;;;;10437073;28;20246;-85
2022/10/01 09:50:42;;;;;;;10.82;7.35;;;23.00;90.90;;;;;;10465782;28;20249;-83
2022/10/01 09:56:34;;;;;;;20.30;12.40;;;22.70;63.60;;;;;;10464756;28;20231;-86
2022/10/01 10:01:57;;;;;;;11.65;7.55;;;21.60;99.90;;;;;;10454800;28;20234;-85
2022/10/01 10:07:19;;;;;;;10.02;6.30;;;21.20;21.50;;;;;;10449402;28;20208;-84
2022/10/01 10:12:42;;;;;;;16.20;9.13;;;21.70;1.00;;;;;;10472942;28;20190;-85
2022/10/01 10:18:16;;;;;;;14.52;10.75;;;22.50;15.90;;;;;;10467507;28;20266;-89
2022/10/01 10:23:52;;;;;;;13.98;8.20;;;23.10;17.30;;;;;;10436160;28;20444;-86
2022/10/01 10:29:29;;;;;;;18.33;10.90;;;23.20;35.80;;;;;;10453118;28;20386;-84
2022/10/01 10:34:55;;;;;;;19.60;10.88;;;21.90;21.60;;;;;;10488367;28;20227;-84
2022/10/01 10:40:30;;;;;;;13.43;8.55;;;21.70;56.00;;;;;;10450601;28;20245;-89
2022/10/01 10:45:56;;;;;;;11.13;8.15;;;21.00;2.60;;;;;;10436332;28;20239;-83
2022/10/01 10:51:17;;;;;;;16.52;11.00;;;20.50;6.10;;;;;;10477520;28;20278;-83
2022/10/01 10:56:39;;;;;;;18.85;16.35;;;20.20;1.00;;;;;;10477787;28;20490;-84
2022/10/01 11:02:04;;;;;;;11.50;7.00;;;19.90;1.00;;;;;;10477397;28;20203;-83
2022/10/01 11:07:26;;;;;;;19.70;12.43;;;19.50;27.60;;;;;;10452100;28;20231;-84
2022/10/01 11:13:08;;;;;;;29.05;13.27;;;19.30;1.00;;;;;;10484506;28;20275;-83
2022/10/01 11:18:51;;;;;;;9.38;6.05;;;19.10;1.00;;;;;;10461697;28;20235;-83
2022/10/01 11:24:23;;;;;;;10.57;6.13;;;18.80;1.00;;;;;;10447753;28;20199;-84
2022/10/01 11:30:17;;;;;;;9.40;6.15;;;19.30;1.00;;;;;;10445486;28;20200;-86
2022/10/01 11:35:54;;;;;;;9.00;6.30;;;19.40;1.00;;;;;;10467104;28;20298;-86
2022/10/01 11:41:24;;;;;;;16.45;6.68;;;19.80;1.00;;;;;;10451616;28;20210;-86
2022/10/01 11:47:00;;;;;;;9.73;6.18;;;20.30;1.00;;;;;;10498088;28;20269;-86
2022/10/01 11:52:27;;;;;;;8.57;5.63;;;20.00;1.00;;;;;;10475255;28;20242;-86
2022/10/01 12:03:51;;;;;;;9.13;5.80;;;20.00;1.00;;;;;;10490581;28;20211;-86
2022/10/01 12:09:23;;;;;;;8.88;5.68;;;19.80;1.00;;;;;;10462633;28;20204;-85
2022/10/01 12:15:09;;;;;;;7.40;5.80;;;18.80;1.00;;;;;;10454092;28;20212;-86
2022/10/01 12:20:45;;;;;;;8.50;4.95;;;18.60;1.00;;;;;;10457373;28;20546;-86
2022/10/01 12:26:20;;;;;;;8.18;5.00;;;18.80;1.00;;;;;;10485651;28;20184;-85
2022/10/01 12:31:50;;;;;;;10.65;6.25;;;18.60;1.00;;;;;;10470319;28;20192;-85
2022/10/01 12:37:31;;;;;;;11.73;7.07;;;18.10;1.00;;;;;;10467702;28;20222;-84
2022/10/01 12:43:20;;;;;;;13.73;7.32;;;;;;;;;;10467529;28;20441;-85
2022/10/01 12:49:02;;;;;;;8.85;7.28;;;17.80;1.00;;;;;;10453128;28;20242;-85
2022/10/01 12:54:44;;;;;;;15.05;8.32;;;17.50;1.00;;;;;;10463261;28;20222;-85
2022/10/01 13:00:21;;;;;;;10.32;7.70;;;17.30;10.80;;;;;;10465512;28;20281;-85
2022/10/01 13:06:19;;;;;;;24.75;10.90;;;17.30;90.60;;;;;;10443165;28;20261;-85
2022/10/01 13:11:43;;;;;;;17.73;9.63;;;17.10;99.90;;;;;;10469228;28;20582;-85
2022/10/01 13:17:16;;;;;;;10.80;7.53;;;17.30;99.90;;;;;;10432905;28;20227;-86
2022/10/01 13:22:58;;;;;;;9.20;7.25;;;17.80;99.90;;;;;;10463555;28;20576;-86
2022/10/01 13:28:43;;;;;;;9.20;6.13;;;17.60;99.90;;;;;;10480862;28;20543;-85
2022/10/01 13:34:33;;;;;;;14.00;7.20;;;17.70;99.90;;;;;;10466671;28;20198;-85
2022/10/01 13:39:56;;;;;;;11.60;7.35;;;17.40;99.90;;;;;;10466102;28;20269;-85
2022/10/01 13:45:28;;;;;;;9.45;6.43;;;17.40;99.90;;;;;;10451394;28;20318;-85
2022/10/01 13:51:11;;;;;;;9.95;7.35;;;17.40;99.90;;;;;;10479778;28;20245;-85
2022/10/01 13:56:35;;;;;;;9.52;6.07;;;17.00;99.90;;;;;;10444711;28;20230;-85
2022/10/01 14:01:57;;;;;;;16.38;8.48;;;16.70;99.90;;;;;;10463801;28;20189;-85
2022/10/01 14:07:25;;;;;;;9.88;6.07;;;16.50;1.00;;;;;;10446876;28;20267;-85
2022/10/01 14:18:37;;;;;;;11.20;7.28;;;16.40;1.00;;;;;;10459775;28;20238;-85
2022/10/01 14:24:22;;;;;;;8.95;6.53;;;16.30;49.20;;;;;;10463277;28;20191;-83
2022/10/01 14:30:01;;;;;;;12.68;8.25;;;16.20;99.90;;;;;;10466705;28;20202;-85
2022/10/01 14:35:33;;;;;;;12.98;8.95;;;16.00;99.90;;;;;;10452805;28;20239;-87
2022/10/01 14:40:55;;;;;;;13.38;8.98;;;16.00;99.90;;;;;;10460820;28;20241;-86
2022/10/01 14:46:17;;;;;;;14.25;9.05;;;15.90;1.00;;;;;;10449880;28;20296;-84
2022/10/01 14:51:57;;;;;;;13.05;9.02;;;15.70;1.00;;;;;;10463985;28;20189;-84
2022/10/01 14:57:38;;;;;;;13.07;9.02;;;15.60;1.00;;;;;;10464426;28;20250;-84
2022/10/01 15:03:14;;;;;;;18.90;8.35;;;15.50;1.00;;;;;;10476577;28;20272;-83
2022/10/01 15:08:43;;;;;;;20.38;9.63;;;15.40;74.20;;;;;;10454586;28;20542;-84
2022/10/01 15:14:09;;;;;;;14.27;9.50;;;15.30;1.00;;;;;;10458321;28;20517;-84
2022/10/01 15:19:32;;;;;;;18.67;10.18;;;15.20;1.00;;;;;;10407383;28;20220;-83
2022/10/01 15:24:59;;;;;;;12.88;10.23;;;15.00;99.90;;;;;;10458988;28;20219;-83
2022/10/01 15:30:26;;;;;;;16.50;10.88;;;15.00;1.00;;;;;;10462324;28;20199;-84
2022/10/01 15:35:48;;;;;;;17.70;10.73;;;14.80;92.60;;;;;;10477226;28;20243;-84
2022/10/01 15:41:25;;;;;;;13.65;10.60;;;14.70;99.90;;;;;;10477453;28;20212;-83
2022/10/01 15:46:51;;;;;;;55.35;38.30;;;14.60;1.00;;;;;;10477180;28;20238;-84
2022/10/01 15:58:13;;;;;;;14.00;10.57;;;14.50;1.00;;;;;;10462628;28;20274;-83
2022/10/01 16:03:39;;;;;;;20.95;14.25;;;14.40;99.90;;;;;;10444171;28;20401;-84
2022/10/01 16:09:04;;;;;;;21.15;14.18;;;14.40;99.90;;;;;;10457475;28;20212;-84
2022/10/01 16:14:38;;;;;;;36.85;21.42;;;14.30;99.90;;;;;;10460682;28;20199;-84
2022/10/01 16:20:21;;;;;;;11.95;10.68;;;14.20;1.00;;;;;;10453353;28;20274;-84
2022/10/01 16:25:45;;;;;;;15.07;10.87;;;14.10;1.00;;;;;;10455591;28;20203;-84
2022/10/01 16:31:07;;;;;;;16.93;12.67;;;14.10;1.00;;;;;;10471066;28;20207;-84
2022/10/01 16:36:31;;;;;;;19.05;11.93;;;14.10;1.00;;;;;;10469474;28;20253;-83
2022/10/01 16:41:54;;;;;;;34.50;23.33;;;13.90;1.00;;;;;;10483879;28;20211;-84
2022/10/01 16:47:26;;;;;;;26.97;16.47;;;13.80;1.00;;;;;;10470720;28;20247;-84
2022/10/01 16:52:54;;;;;;;22.03;15.97;;;13.90;1.00;;;;;;10487691;28;20191;-84
2022/10/01 16:58:16;;;;;;;19.27;13.57;;;13.80;1.00;;;;;;10470656;28;20408;-84
2022/10/01 17:03:37;;;;;;;19.33;13.40;;;13.70;99.90;;;;;;10465609;28;20565;-83
2022/10/01 17:08:59;;;;;;;21.27;14.00;;;13.70;99.90;;;;;;10455533;28;20207;-84
2022/10/01 17:14:20;;;;;;;16.87;11.63;;;13.70;99.90;;;;;;10482744;28;20414;-84
2022/10/01 17:19:42;;;;;;;22.43;14.77;;;13.60;99.90;;;;;;10468821;28;20267;-84
2022/10/01 17:25:06;;;;;;;27.80;16.37;;;13.60;1.00;;;;;;10468036;28;20225;-84
2022/10/01 17:30:28;;;;;;;41.73;28.30;;;13.60;1.00;;;;;;10481154;28;20199;-84
2022/10/01 17:35:53;;;;;;;33.47;22.27;;;13.60;1.00;;;;;;10453080;28;20395;-84
2022/10/01 17:41:14;;;;;;;18.80;13.43;;;13.40;1.00;;;;;;10467499;28;20202;-84
2022/10/01 17:46:36;;;;;;;13.70;10.17;;;13.10;99.90;;;;;;10467281;28;20252;-85
2022/10/01 17:51:58;;;;;;;9.40;7.23;;;12.60;1.00;;;;;;10467873;28;20190;-85
2022/10/01 17:57:19;;;;;;;10.53;7.47;;;12.20;1.00;;;;;;10452908;28;20224;-83
2022/10/01 18:02:41;;;;;;;27.13;13.77;;;12.20;1.00;;;;;;10480129;28;20198;-83
2022/10/01 18:08:03;;;;;;;23.20;12.17;;;12.20;1.00;;;;;;10469016;28;20244;-83
2022/10/01 18:13:24;;;;;;;13.93;8.33;;;12.10;1.00;;;;;;10465371;28;20194;-84
2022/10/01 18:18:45;;;;;;;10.30;5.97;;;12.10;3.10;;;;;;10480150;28;20224;-84
2022/10/01 18:24:27;;;;;;;8.93;6.60;;;12.00;11.40;;;;;;10465656;28;20211;-83
2022/10/01 18:29:49;;;;;;;11.13;7.10;;;11.80;1.00;;;;;;10479518;28;20446;-84
2022/10/01 18:35:19;;;;;;;10.93;7.60;;;11.80;39.20;;;;;;10422822;28;20256;-84
2022/10/01 18:40:42;;;;;;;8.37;5.80;;;11.80;49.50;;;;;;10409569;28;20206;-83
2022/10/01 18:46:09;;;;;;;11.30;7.60;;;11.80;34.60;;;;;;10440491;28;20240;-84
2022/10/01 18:51:50;;;;;;;11.20;8.03;;;11.70;59.40;;;;;;10424732;28;20202;-83
2022/10/01 18:57:21;;;;;;;9.80;7.37;;;11.60;65.30;;;;;;10423326;28;20275;-83
2022/10/01 19:02:52;;;;;;;9.43;6.30;;;11.50;91.50;;;;;;10446216;28;20189;-84
2022/10/01 19:08:45;;;;;;;8.33;5.07;;;11.50;77.50;;;;;;10451851;28;20211;-85
2022/10/01 19:14:36;;;;;;;6.70;5.33;;;11.60;93.00;;;;;;10445550;28;20204;-84
2022/10/01 19:20:06;;;;;;;11.43;7.03;;;11.50;87.00;;;;;;10444674;28;20271;-85
2022/10/01 19:25:46;;;;;;;18.57;12.33;;;11.50;78.20;;;;;;10461338;28;20260;-84
2022/10/01 19:31:41;;;;;;;21.17;12.43;;;11.50;99.70;;;;;;10444771;28;20228;-85
2022/10/01 19:37:35;;;;;;;29.23;14.67;;;11.50;96.60;;;;;;10474803;28;20529;-85
2022/10/01 19:43:19;;;;;;;18.17;11.07;;;11.40;99.90;;;;;;10475140;28;20202;-85
2022/10/01 19:48:59;;;;;;;18.50;10.40;;;11.50;99.90;;;;;;10460726;28;20258;-85
2022/10/01 19:54:28;;;;;;;12.03;8.63;;;11.50;99.90;;;;;;10463092;28;20211;-86
2022/10/01 20:00:08;;;;;;;12.83;8.57;;;11.50;99.90;;;;;;10484454;28;20236;-84
2022/10/01 20:05:57;;;;;;;11.07;7.30;;;11.60;99.90;;;;;;10463862;28;20596;-86
2022/10/01 20:11:29;;;;;;;15.83;9.53;;;11.50;99.90;;;;;;10456146;28;20515;-86
2022/10/01 20:16:52;;;;;;;12.10;7.47;;;11.50;99.90;;;;;;10443239;28;20232;-86
2022/10/01 20:22:30;;;;;;;10.93;7.83;;;11.50;99.90;;;;;;10459725;28;20197;-87
2022/10/01 20:28:10;;;;;;;23.40;11.60;;;11.40;99.90;;;;;;10470529;28;20200;-86
2022/10/01 20:34:01;;;;;;;39.23;17.80;;;11.40;99.90;;;;;;10465143;28;20199;-83
2022/10/01 20:39:30;;;;;;;15.97;9.57;;;11.40;99.90;;;;;;10477963;28;20264;-86
2022/10/01 20:44:53;;;;;;;13.63;8.80;;;11.30;99.90;;;;;;10461753;28;20226;-84
2022/10/01 20:50:26;;;;;;;14.33;8.33;;;11.40;99.90;;;;;;10503813;28;20414;-84
2022/10/01 20:56:00;;;;;;;16.87;10.63;;;11.40;99.90;;;;;;10466778;28;20271;-87
2022/10/01 21:01:24;;;;;;;12.87;9.77;;;11.40;99.90;;;;;;10475963;28;20199;-86
2022/10/01 21:06:52;;;;;;;9.17;7.37;;;11.40;99.90;;;;;;10468729;28;20207;-86
2022/10/01 21:12:25;;;;;;;7.67;5.90;;;11.40;99.90;;;;;;10449515;28;20465;-86
2022/10/01 21:18:16;;;;;;;7.30;5.30;;;11.50;99.90;;;;;;10434672;28;20240;-86
2022/10/01 21:23:46;;;;;;;5.70;4.37;;;11.40;99.90;;;;;;10434346;28;20208;-86
2022/10/01 21:29:45;;;;;;;5.53;4.73;;;11.50;99.90;;;;;;10460321;28;20217;-86
2022/10/01 21:35:38;;;;;;;5.70;4.40;;;11.50;99.90;;;;;;10495439;28;20287;-85
2022/10/01 21:40:59;;;;;;;5.97;5.03;;;11.40;99.90;;;;;;10470456;28;20192;-85
2022/10/01 21:46:26;;;;;;;5.90;4.47;;;11.40;99.90;;;;;;10453573;28;20437;-86
2022/10/01 21:52:14;;;;;;;7.00;5.17;;;11.40;99.90;;;;;;10481427;28;20189;-86
2022/10/01 21:57:54;;;;;;;7.73;5.50;;;11.50;99.90;;;;;;10484685;28;20291;-85
2022/10/01 22:03:30;;;;;;;6.37;4.73;;;11.40;99.90;;;;;;10461103;28;20535;-85
2022/10/01 22:09:23;;;;;;;8.83;5.93;;;11.40;99.90;;;;;;10467821;28;20211;-85
2022/10/01 22:14:48;;;;;;;6.00;5.20;;;11.40;99.90;;;;;;10465602;28;20201;-85
2022/10/01 22:20:11;;;;;;;7.67;5.50;;;11.40;99.90;;;;;;10479966;28;20221;-85
2022/10/01 22:25:41;;;;;;;6.70;4.90;;;11.50;99.90;;;;;;10479408;28;20515;-85
2022/10/01 22:31:05;;;;;;;8.00;5.20;;;11.50;99.90;;;;;;10424487;28;20192;-86
2022/10/01 22:36:50;;;;;;;9.17;5.33;;;11.50;99.90;;;;;;10456135;28;20247;-85
2022/10/01 22:42:23;;;;;;;9.40;5.90;;;11.50;99.90;;;;;;10465003;28;20186;-85
2022/10/01 22:47:50;;;;;;;7.27;5.53;;;11.50;99.90;;;;;;10464230;28;20602;-86
2022/10/01 22:53:50;;;;;;;8.27;4.20;;;11.50;99.90;;;;;;10492897;28;20188;-85
2022/10/01 22:59:21;;;;;;;6.03;4.63;;;11.50;99.90;;;;;;10458553;28;20561;-85
2022/10/01 23:04:56;;;;;;;6.97;4.40;;;11.50;99.90;;;;;;10432358;28;20206;-86
2022/10/01 23:11:00;;;;;;;5.70;4.30;;;11.50;99.90;;;;;;10437556;28;20209;-86
2022/10/01 23:16:30;;;;;;;6.83;4.30;;;11.50;99.90;;;;;;10492050;28;20216;-85
2022/10/01 23:22:00;;;;;;;11.67;5.37;;;11.60;99.90;;;;;;10458850;28;20240;-86
2022/10/01 23:27:33;;;;;;;11.50;6.07;;;11.60;99.90;;;;;;10461579;28;20235;-86
2022/10/01 23:33:16;;;;;;;11.03;6.20;;;11.60;99.90;;;;;;10468199;28;20222;-85
2022/10/01 23:39:06;;;;;;;7.80;4.77;;;11.60;99.90;;;;;;10472194;28;20254;-86
2022/10/01 23:44:37;;;;;;;6.50;4.50;;;11.60;99.90;;;;;;10483582;28;20543;-86
2022/10/01 23:50:00;;;;;;;6.60;4.67;;;11.60;99.90;;;;;;10457731;28;20202;-86
